Terminal Aerodrome Forecast
Issued by NWS

Current Version | Previous Version | Text Only | Print | Product List | Glossary On
Versions: 1 2 3 4 5 6 7 8 9 10 11 12 13 14
000
FTUS45 KABQ 042336
TAFAEG
TAF
KAEG 042336Z 0500/0524 23010KT P6SM VCSH SCT070 BKN150
      TEMPO 0500/0503 VRB12G30KT OVC050
     FM050600 18006KT P6SM SCT060 BKN100
     FM051300 VRB06KT P6SM SCT090 SCT150
     FM051700 21007KT P6SM SCT070
     FM052000 23008KT P6SM VCSH BKN080 BKN140
     FM052200 25012KT P6SM VCTS BKN070CB BKN120=

USA.gov is the U.S. government's official web portal to all federal, state and local government web resources and services.